createdAt,value
2023-04-09T00:00:32.114Z,9.96
2023-04-09T00:03:22.595Z,9.96
2023-04-09T00:06:12.694Z,10.00
2023-04-09T00:09:01.450Z,9.82
2023-04-09T00:11:49.959Z,9.80
2023-04-09T00:14:38.527Z,9.75
2023-04-09T00:17:27.066Z,9.73
2023-04-09T00:20:17.227Z,9.81
2023-04-09T00:23:06.069Z,9.73
2023-04-09T00:25:54.684Z,9.72
2023-04-09T00:28:43.186Z,9.81
2023-04-09T00:31:31.756Z,9.79
2023-04-09T00:34:20.295Z,9.71
2023-04-09T00:37:10.382Z,9.64
2023-04-09T00:39:58.879Z,9.50
2023-04-09T00:42:48.080Z,9.59
2023-04-09T00:45:36.907Z,9.50
2023-04-09T00:48:25.645Z,9.35
2023-04-09T00:51:14.184Z,9.42
2023-04-09T00:54:04.195Z,9.50
2023-04-09T00:56:53.248Z,9.46
2023-04-09T00:59:41.830Z,9.46
2023-04-09T01:02:30.960Z,9.40
2023-04-09T01:05:20.433Z,9.40
2023-04-09T01:08:14.150Z,9.35
2023-04-09T01:11:10.684Z,9.42
2023-04-09T01:14:08.039Z,9.47
2023-04-09T01:17:00.733Z,9.47
2023-04-09T01:19:52.410Z,9.53
2023-04-09T01:23:05.563Z,9.43
2023-04-09T01:26:03.289Z,9.22
2023-04-09T01:28:55.139Z,9.26
2023-04-09T01:31:44.165Z,9.38
2023-04-09T01:34:32.919Z,9.35
2023-04-09T01:37:21.792Z,9.36
2023-04-09T01:40:11.095Z,9.27
2023-04-09T01:42:59.796Z,9.21
2023-04-09T01:45:49.836Z,9.22
2023-04-09T01:48:38.772Z,9.23
2023-04-09T01:51:27.926Z,9.14
2023-04-09T01:54:17.312Z,9.18
2023-04-09T01:57:05.860Z,9.19
2023-04-09T01:59:55.596Z,9.07
2023-04-09T02:02:48.152Z,8.78
2023-04-09T02:05:39.751Z,8.98
2023-04-09T02:08:29.847Z,9.14
2023-04-09T02:11:18.578Z,9.16
2023-04-09T02:14:09.152Z,9.14
2023-04-09T02:16:57.970Z,9.17
2023-04-09T02:19:48.678Z,9.06
2023-04-09T02:22:37.245Z,9.01
2023-04-09T02:25:26.302Z,8.30
2023-04-09T02:28:14.850Z,9.02
2023-04-09T02:31:03.845Z,8.98
2023-04-09T02:33:54.073Z,9.10
2023-04-09T02:36:43.911Z,9.03
2023-04-09T02:39:32.400Z,8.96
2023-04-09T02:42:21.788Z,8.91
2023-04-09T02:45:11.193Z,9.00
2023-04-09T02:47:59.773Z,8.94
2023-04-09T02:50:48.351Z,8.93
2023-04-09T02:53:40.706Z,8.96
2023-04-09T02:56:29.250Z,8.93
2023-04-09T02:59:17.727Z,8.81
2023-04-09T03:02:06.444Z,8.70
2023-04-09T03:04:55.108Z,8.71
2023-04-09T03:07:43.661Z,8.70
2023-04-09T03:10:33.573Z,8.74
2023-04-09T03:13:22.087Z,8.82
2023-04-09T03:16:11.119Z,8.76
2023-04-09T03:18:59.951Z,8.72
2023-04-09T03:21:49.260Z,8.69
2023-04-09T03:24:37.716Z,8.63
2023-04-09T03:27:27.552Z,8.49
2023-04-09T03:30:16.212Z,8.58
2023-04-09T03:33:04.829Z,8.53
2023-04-09T03:35:53.461Z,8.57
2023-04-09T03:38:41.970Z,8.55
2023-04-09T03:41:30.448Z,8.37
2023-04-09T03:44:20.596Z,8.31
2023-04-09T03:47:09.086Z,8.29
2023-04-09T03:49:57.612Z,7.88
2023-04-09T03:52:46.059Z,8.25
2023-04-09T03:55:34.714Z,8.14
2023-04-09T03:58:23.154Z,8.23
2023-04-09T04:01:13.015Z,8.21
2023-04-09T04:04:01.712Z,8.25
2023-04-09T04:06:50.372Z,8.24
2023-04-09T04:09:38.866Z,8.06
2023-04-09T04:12:27.362Z,8.00
2023-04-09T04:15:16.274Z,8.01
2023-04-09T04:18:06.134Z,7.94
2023-04-09T04:20:54.642Z,7.90
2023-04-09T04:23:43.337Z,7.91
2023-04-09T04:26:31.853Z,7.88
2023-04-09T04:29:20.621Z,7.74
2023-04-09T04:32:09.138Z,7.70
2023-04-09T04:34:58.926Z,7.69
2023-04-09T04:37:50.697Z,7.43
2023-04-09T04:40:39.153Z,7.57
2023-04-09T04:43:27.725Z,7.48
2023-04-09T04:46:16.378Z,7.44
2023-04-09T04:49:04.966Z,7.43
2023-04-09T04:51:54.793Z,7.41
2023-04-09T04:54:43.307Z,7.57
2023-04-09T04:57:31.850Z,7.67
2023-04-09T05:00:20.711Z,7.85
2023-04-09T05:03:09.316Z,7.56
2023-04-09T05:05:57.847Z,7.65
2023-04-09T05:08:47.724Z,7.66
2023-04-09T05:11:36.174Z,7.33
2023-04-09T05:14:25.150Z,7.51
2023-04-09T05:17:13.957Z,7.54
2023-04-09T05:20:02.549Z,7.53
2023-04-09T05:22:51.047Z,7.24
2023-04-09T05:25:41.106Z,7.12
2023-04-09T05:28:29.604Z,7.01
2023-04-09T05:31:18.360Z,6.94
2023-04-09T05:34:07.183Z,6.91
2023-04-09T05:36:55.772Z,6.94
2023-04-09T05:39:44.279Z,6.85
2023-04-09T05:42:34.205Z,6.68
2023-04-09T05:45:22.738Z,6.57
2023-04-09T05:48:11.359Z,6.54
2023-04-09T05:51:01.009Z,6.42
2023-04-09T05:53:50.036Z,6.37
2023-04-09T05:56:38.631Z,6.45
2023-04-09T05:59:28.578Z,6.52
2023-04-09T06:02:17.177Z,6.49
2023-04-09T06:05:06.407Z,6.61
2023-04-09T06:07:54.977Z,6.55
2023-04-09T06:10:46.335Z,7.00
2023-04-09T06:13:35.091Z,7.15
2023-04-09T06:16:24.886Z,7.19
2023-04-09T06:19:13.490Z,7.29
2023-04-09T06:22:02.014Z,7.61
2023-04-09T06:24:50.572Z,8.03
2023-04-09T06:27:39.083Z,8.21
2023-04-09T06:30:27.590Z,8.58
2023-04-09T06:33:23.715Z,8.68
2023-04-09T06:36:12.366Z,8.82
2023-04-09T06:39:00.908Z,8.77
2023-04-09T06:41:49.463Z,8.84
2023-04-09T06:44:38.014Z,9.07
2023-04-09T06:47:27.108Z,9.27
2023-04-09T06:50:17.874Z,9.44
2023-04-09T06:53:08.056Z,9.27
2023-04-09T06:55:57.268Z,9.99
2023-04-09T06:58:45.892Z,10.09
2023-04-09T07:01:35.516Z,10.09
2023-04-09T07:04:24.228Z,10.49
2023-04-09T07:07:14.265Z,10.61
2023-04-09T07:10:02.890Z,10.26
2023-04-09T07:12:51.381Z,10.62
2023-04-09T07:15:40.661Z,10.77
2023-04-09T07:18:31.695Z,10.88
2023-04-09T07:21:20.439Z,11.11
2023-04-09T07:24:10.338Z,11.17
2023-04-09T07:26:58.825Z,10.91
2023-04-09T07:29:47.632Z,11.16
2023-04-09T07:32:36.395Z,11.17
2023-04-09T07:35:25.027Z,11.30
2023-04-09T07:38:13.658Z,11.23
2023-04-09T07:41:03.543Z,11.41
2023-04-09T07:43:52.057Z,11.21
2023-04-09T07:46:41.384Z,11.08
2023-04-09T07:49:29.989Z,11.21
2023-04-09T07:52:19.566Z,11.22
2023-04-09T07:55:08.447Z,11.29
2023-04-09T07:57:58.300Z,11.69
2023-04-09T08:00:46.971Z,11.74
2023-04-09T08:03:36.305Z,11.82
2023-04-09T08:06:26.348Z,11.95
2023-04-09T08:09:15.059Z,12.29
2023-04-09T08:12:03.854Z,12.24
2023-04-09T08:14:53.740Z,12.28
2023-04-09T08:17:42.401Z,12.36
2023-04-09T08:20:32.954Z,12.73
2023-04-09T08:23:21.451Z,12.78
2023-04-09T08:26:10.014Z,13.00
2023-04-09T08:28:59.004Z,13.40
2023-04-09T08:31:48.914Z,13.26
2023-04-09T08:34:37.572Z,13.56
2023-04-09T08:37:26.715Z,13.41
2023-04-09T08:40:15.554Z,13.37
2023-04-09T08:43:06.680Z,13.29
2023-04-09T08:45:58.052Z,13.56
2023-04-09T08:48:49.817Z,13.82
2023-04-09T08:51:39.346Z,14.29
2023-04-09T08:54:27.926Z,14.46
2023-04-09T08:57:17.845Z,14.19
2023-04-09T09:00:07.939Z,13.77
2023-04-09T09:03:03.424Z,13.68
2023-04-09T09:05:53.743Z,13.69
2023-04-09T09:08:42.364Z,13.95
2023-04-09T09:11:31.323Z,13.64
2023-04-09T09:14:20.699Z,13.32
2023-04-09T09:17:09.295Z,12.97
2023-04-09T09:19:58.109Z,13.18
2023-04-09T09:22:55.909Z,13.13
2023-04-09T09:25:44.639Z,12.84
2023-04-09T09:28:36.418Z,12.91
2023-04-09T09:31:24.947Z,13.07
2023-04-09T09:34:13.588Z,12.90
2023-04-09T09:37:02.363Z,13.79
2023-04-09T09:39:52.318Z,14.00
2023-04-09T09:42:55.840Z,13.68
2023-04-09T09:45:45.614Z,13.65
2023-04-09T09:48:35.087Z,13.77
2023-04-09T09:51:27.718Z,13.67
2023-04-09T09:54:19.082Z,13.49
2023-04-09T09:57:13.576Z,13.31
2023-04-09T10:00:03.942Z,13.37
2023-04-09T10:02:55.689Z,13.69
2023-04-09T10:05:44.682Z,14.21
2023-04-09T10:08:34.804Z,14.27
2023-04-09T10:11:24.376Z,14.66
2023-04-09T10:14:14.744Z,14.41
2023-04-09T10:17:03.939Z,13.77
2023-04-09T10:20:00.265Z,13.47
2023-04-09T10:22:50.227Z,13.42
2023-04-09T10:25:38.986Z,13.42
2023-04-09T10:28:27.513Z,13.47
2023-04-09T10:31:17.464Z,13.40
2023-04-09T10:34:05.914Z,13.17
2023-04-09T10:36:57.829Z,13.09
2023-04-09T10:39:47.532Z,13.01
2023-04-09T10:42:38.878Z,13.09
2023-04-09T10:45:40.648Z,13.32
2023-04-09T10:48:34.224Z,13.43
2023-04-09T10:51:22.822Z,13.75
2023-04-09T10:54:39.034Z,13.77
2023-04-09T10:57:27.992Z,13.79
2023-04-09T11:00:18.730Z,14.04
2023-04-09T11:03:23.174Z,13.98
2023-04-09T11:06:17.644Z,13.63
2023-04-09T11:09:06.174Z,13.82
2023-04-09T11:11:55.084Z,13.49
2023-04-09T11:14:43.572Z,13.83
2023-04-09T11:17:32.551Z,14.02
2023-04-09T11:20:22.524Z,14.04
2023-04-09T11:23:14.044Z,13.87
2023-04-09T11:26:02.959Z,13.65
2023-04-09T11:28:51.747Z,13.83
2023-04-09T11:31:40.521Z,13.66
2023-04-09T11:34:29.158Z,13.64
2023-04-09T11:37:18.038Z,13.78
2023-04-09T11:40:09.333Z,13.92
2023-04-09T11:42:57.867Z,13.99
2023-04-09T11:45:48.272Z,13.44
2023-04-09T11:48:37.340Z,13.58
2023-04-09T11:51:27.183Z,13.71
2023-04-09T11:54:15.938Z,13.93
2023-04-09T11:57:06.820Z,14.03
2023-04-09T11:59:55.385Z,13.98
2023-04-09T12:02:46.389Z,14.01
2023-04-09T12:05:37.115Z,14.14
2023-04-09T12:08:26.426Z,14.07
2023-04-09T12:11:17.113Z,13.93
2023-04-09T12:14:07.037Z,13.97
2023-04-09T12:16:55.698Z,14.18
2023-04-09T12:19:44.279Z,14.14
2023-04-09T12:22:33.029Z,14.03
2023-04-09T12:25:21.600Z,14.11
2023-04-09T12:28:12.277Z,14.11
2023-04-09T12:31:03.570Z,13.96
2023-04-09T12:33:52.325Z,13.98
2023-04-09T12:36:41.620Z,14.19
2023-04-09T12:39:31.349Z,14.23
2023-04-09T12:42:20.481Z,14.55
2023-04-09T12:45:10.420Z,14.84
2023-04-09T12:48:00.370Z,15.22
2023-04-09T12:50:48.993Z,15.06
2023-04-09T12:53:37.575Z,14.89
2023-04-09T12:56:27.368Z,14.66
2023-04-09T12:59:16.793Z,14.80
2023-04-09T13:02:05.483Z,14.49
2023-04-09T13:04:55.544Z,14.47
2023-04-09T13:07:44.415Z,14.50
2023-04-09T13:10:33.259Z,14.65
2023-04-09T13:13:22.066Z,14.42
2023-04-09T13:16:10.608Z,14.94
2023-04-09T13:18:59.158Z,15.04
2023-04-09T13:21:49.036Z,15.25
2023-04-09T13:24:37.679Z,15.26
2023-04-09T13:27:26.508Z,15.30
2023-04-09T13:30:15.344Z,15.23
2023-04-09T13:33:05.351Z,15.16
2023-04-09T13:35:54.713Z,15.56
2023-04-09T13:38:45.623Z,15.35
2023-04-09T13:41:35.504Z,15.28
2023-04-09T13:44:25.955Z,15.64
2023-04-09T13:47:16.686Z,15.74
2023-04-09T13:50:06.888Z,15.83
2023-04-09T13:52:55.664Z,15.78
2023-04-09T13:55:45.696Z,15.56
2023-04-09T13:58:36.216Z,15.70
2023-04-09T14:01:27.957Z,16.07
2023-04-09T14:04:16.676Z,16.31
2023-04-09T14:07:05.216Z,16.00
2023-04-09T14:09:53.845Z,15.85
2023-04-09T14:12:43.746Z,15.39
2023-04-09T14:15:32.330Z,15.09
2023-04-09T14:18:20.948Z,15.48
2023-04-09T14:21:10.304Z,15.74
2023-04-09T14:23:59.153Z,15.80
2023-04-09T14:26:47.727Z,15.47
2023-04-09T14:29:38.015Z,15.74
2023-04-09T14:32:26.540Z,15.53
2023-04-09T14:35:15.356Z,15.50
2023-04-09T14:38:04.685Z,15.56
2023-04-09T14:40:53.443Z,15.70
2023-04-09T14:43:42.030Z,15.77
2023-04-09T14:46:31.883Z,15.77
2023-04-09T14:49:20.435Z,15.80
2023-04-09T14:52:09.344Z,15.62
2023-04-09T14:54:58.119Z,15.86
2023-04-09T14:57:46.848Z,15.89
2023-04-09T15:00:36.104Z,15.68
2023-04-09T15:03:26.610Z,15.73
2023-04-09T15:06:15.623Z,15.82
2023-04-09T15:09:04.176Z,15.73
2023-04-09T15:11:54.019Z,15.78
2023-04-09T15:14:42.522Z,15.88
2023-04-09T15:17:31.140Z,15.99
2023-04-09T15:20:21.164Z,15.47
2023-04-09T15:23:09.702Z,15.87
2023-04-09T15:25:58.998Z,15.82
2023-04-09T15:28:47.610Z,15.67
2023-04-09T15:31:36.298Z,15.57
2023-04-09T15:34:25.848Z,15.73
2023-04-09T15:37:15.995Z,15.53
2023-04-09T15:40:05.256Z,15.56
2023-04-09T15:42:53.807Z,15.49
2023-04-09T15:45:42.330Z,15.51
2023-04-09T15:48:30.964Z,15.61
2023-04-09T15:51:19.498Z,15.67
2023-04-09T15:54:09.403Z,15.76
2023-04-09T15:56:57.954Z,15.79
2023-04-09T15:59:48.326Z,15.57
2023-04-09T16:02:38.662Z,15.97
2023-04-09T16:05:27.278Z,15.78
2023-04-09T16:08:15.893Z,15.82
2023-04-09T16:11:08.181Z,15.80
2023-04-09T16:13:57.217Z,15.83
2023-04-09T16:16:49.651Z,15.66
2023-04-09T16:19:38.578Z,15.74
2023-04-09T16:22:27.076Z,15.78
2023-04-09T16:25:15.592Z,15.70
2023-04-09T16:28:06.299Z,15.67
2023-04-09T16:30:54.820Z,15.60
2023-04-09T16:33:43.371Z,15.52
2023-04-09T16:36:33.490Z,15.60
2023-04-09T16:39:22.389Z,15.53
2023-04-09T16:42:12.112Z,15.65
2023-04-09T16:45:04.298Z,15.55
2023-04-09T16:47:53.998Z,15.49
2023-04-09T16:50:42.862Z,15.51
2023-04-09T16:53:31.375Z,15.41
2023-04-09T16:56:20.228Z,15.43
2023-04-09T16:59:08.768Z,15.39
2023-04-09T17:01:58.791Z,15.37
2023-04-09T17:04:48.321Z,15.25
2023-04-09T17:07:37.049Z,15.19
2023-04-09T17:10:25.551Z,14.79
2023-04-09T17:13:14.051Z,15.07
2023-04-09T17:16:02.899Z,14.96
2023-04-09T17:18:53.178Z,15.03
2023-04-09T17:21:41.978Z,15.06
2023-04-09T17:24:30.564Z,14.83
2023-04-09T17:27:19.631Z,14.86
2023-04-09T17:30:09.077Z,14.80
2023-04-09T17:32:57.644Z,14.73
2023-04-09T17:35:47.604Z,14.78
2023-04-09T17:38:36.406Z,14.70
2023-04-09T17:41:24.923Z,14.68
2023-04-09T17:44:13.514Z,14.74
2023-04-09T17:47:02.423Z,14.55
2023-04-09T17:49:51.521Z,14.60
2023-04-09T17:52:41.459Z,14.45
2023-04-09T17:55:30.487Z,14.39
2023-04-09T17:58:19.026Z,14.33
2023-04-09T18:01:08.395Z,13.95
2023-04-09T18:03:57.179Z,14.17
2023-04-09T18:06:45.861Z,14.11
2023-04-09T18:09:35.725Z,14.03
2023-04-09T18:12:25.447Z,13.97
2023-04-09T18:15:14.165Z,13.87
2023-04-09T18:18:02.763Z,13.85
2023-04-09T18:20:52.314Z,13.68
2023-04-09T18:23:41.131Z,13.55
2023-04-09T18:26:31.328Z,13.45
2023-04-09T18:29:19.848Z,13.30
2023-04-09T18:32:08.383Z,13.26
2023-04-09T18:34:56.954Z,13.21
2023-04-09T18:37:45.805Z,12.98
2023-04-09T18:40:34.299Z,13.08
2023-04-09T18:43:24.288Z,12.97
2023-04-09T18:46:12.812Z,12.86
2023-04-09T18:49:01.544Z,12.74
2023-04-09T18:51:50.373Z,12.61
2023-04-09T18:54:39.102Z,12.37
2023-04-09T18:57:27.661Z,12.38
2023-04-09T19:00:17.603Z,12.26
2023-04-09T19:03:06.392Z,12.17
2023-04-09T19:05:55.140Z,12.03
2023-04-09T19:08:43.644Z,11.94
2023-04-09T19:11:32.139Z,11.90
2023-04-09T19:14:20.744Z,11.34
2023-04-09T19:17:11.674Z,11.55
2023-04-09T19:20:00.211Z,11.45
2023-04-09T19:22:49.379Z,11.37
2023-04-09T19:25:37.897Z,11.20
2023-04-09T19:28:26.593Z,11.00
2023-04-09T19:31:16.038Z,10.88
2023-04-09T19:34:06.503Z,10.86
2023-04-09T19:36:55.134Z,10.81
2023-04-09T19:39:43.619Z,10.72
2023-04-09T19:42:32.770Z,10.62
2023-04-09T19:45:21.300Z,10.47
2023-04-09T19:48:09.902Z,10.31
2023-04-09T19:50:59.848Z,10.16
2023-04-09T19:53:49.264Z,10.13
2023-04-09T19:56:38.270Z,10.04
2023-04-09T19:59:27.171Z,10.06
2023-04-09T20:02:16.216Z,10.04
2023-04-09T20:05:05.098Z,9.88
2023-04-09T20:07:54.974Z,9.78
2023-04-09T20:10:46.423Z,9.72
2023-04-09T20:13:34.969Z,9.73
2023-04-09T20:16:23.831Z,9.65
2023-04-09T20:19:12.390Z,9.60
2023-04-09T20:22:01.210Z,9.55
2023-04-09T20:24:51.992Z,9.53
2023-04-09T20:27:40.860Z,9.39
2023-04-09T20:30:29.691Z,9.36
2023-04-09T20:33:18.724Z,9.21
2023-04-09T20:36:15.620Z,9.07
2023-04-09T20:39:04.536Z,8.95
2023-04-09T20:41:55.039Z,8.88
2023-04-09T20:44:44.797Z,8.76
2023-04-09T20:47:33.393Z,8.73
2023-04-09T20:50:21.987Z,8.72
2023-04-09T20:53:10.521Z,8.67
2023-04-09T20:55:59.209Z,8.49
2023-04-09T20:58:49.115Z,8.67
2023-04-09T21:01:37.789Z,8.78
2023-04-09T21:04:26.579Z,8.69
2023-04-09T21:07:15.703Z,8.74
2023-04-09T21:10:05.635Z,8.68
2023-04-09T21:12:54.119Z,8.75
2023-04-09T21:15:44.019Z,8.87
2023-04-09T21:18:32.534Z,8.75
2023-04-09T21:21:21.419Z,8.81
2023-04-09T21:24:10.032Z,8.81
2023-04-09T21:26:58.785Z,8.74
2023-04-09T21:29:47.350Z,8.64
2023-04-09T21:32:37.315Z,8.57
2023-04-09T21:35:25.950Z,8.62
2023-04-09T21:38:14.478Z,8.54
2023-04-09T21:41:03.033Z,8.52
2023-04-09T21:43:51.703Z,8.52
2023-04-09T21:46:41.675Z,8.37
2023-04-09T21:49:31.702Z,8.27
2023-04-09T21:52:20.624Z,8.07
2023-04-09T21:55:10.181Z,7.94
2023-04-09T21:57:59.044Z,7.74
2023-04-09T22:00:47.793Z,7.44
2023-04-09T22:03:37.207Z,7.36
2023-04-09T22:06:28.932Z,7.38
2023-04-09T22:09:17.704Z,7.20
2023-04-09T22:12:06.979Z,7.49
2023-04-09T22:14:55.536Z,7.48
2023-04-09T22:17:44.200Z,7.40
2023-04-09T22:20:33.323Z,7.35
2023-04-09T22:23:23.233Z,7.18
2023-04-09T22:26:11.939Z,6.61
2023-04-09T22:29:00.645Z,7.02
2023-04-09T22:31:49.189Z,6.94
2023-04-09T22:34:37.755Z,6.89
2023-04-09T22:37:26.374Z,6.90
2023-04-09T22:40:16.719Z,7.03
2023-04-09T22:43:05.710Z,7.01
2023-04-09T22:45:55.171Z,7.10
2023-04-09T22:48:44.899Z,7.00
2023-04-09T22:51:34.950Z,6.80
2023-04-09T22:54:24.562Z,6.77
2023-04-09T22:57:14.532Z,6.58
2023-04-09T23:00:05.027Z,6.51
2023-04-09T23:02:53.670Z,6.54
2023-04-09T23:05:42.351Z,6.69
2023-04-09T23:08:31.164Z,6.66
2023-04-09T23:11:19.790Z,6.68
2023-04-09T23:14:09.703Z,6.48
2023-04-09T23:16:58.271Z,6.68
2023-04-09T23:19:46.991Z,6.57
2023-04-09T23:22:35.489Z,6.58
2023-04-09T23:25:24.024Z,6.63
2023-04-09T23:28:12.577Z,6.46
2023-04-09T23:31:02.469Z,6.31
2023-04-09T23:33:52.016Z,6.29
2023-04-09T23:36:40.824Z,6.28
2023-04-09T23:39:29.582Z,6.21
2023-04-09T23:42:18.183Z,6.25
2023-04-09T23:45:07.806Z,6.35
2023-04-09T23:47:57.784Z,6.46
2023-04-09T23:50:47.693Z,6.59
2023-04-09T23:53:36.292Z,6.66
2023-04-09T23:56:25.113Z,6.75
2023-04-09T23:59:13.788Z,6.78
